sensor_id;sensor_type;location;lat;lon;timestamp;pressure;altitude;pressure_sealevel;temperature;humidity
65227;BME280;51805;49.012;12.104;2022-08-19T00:00:37;97049.78;;;28.35;37.65
65227;BME280;51805;49.012;12.104;2022-08-19T00:03:03;97062.63;;;28.55;37.87
65227;BME280;51805;49.012;12.104;2022-08-19T00:05:29;97061.88;;;28.46;37.94
65227;BME280;51805;49.012;12.104;2022-08-19T00:07:55;97054.72;;;28.42;37.92
65227;BME280;51805;49.012;12.104;2022-08-19T00:10:21;97069.28;;;28.46;37.82
65227;BME280;51805;49.012;12.104;2022-08-19T00:12:46;97090.22;;;28.62;37.89
65227;BME280;51805;49.012;12.104;2022-08-19T00:15:14;97087.34;;;28.59;37.88
65227;BME280;51805;49.012;12.104;2022-08-19T00:17:42;97052.06;;;28.33;37.96
65227;BME280;51805;49.012;12.104;2022-08-19T00:20:10;97096.78;;;28.61;37.82
65227;BME280;51805;49.012;12.104;2022-08-19T00:22:37;97083.88;;;28.38;37.81
65227;BME280;51805;49.012;12.104;2022-08-19T00:25:03;97102.91;;;28.46;38.15
65227;BME280;51805;49.012;12.104;2022-08-19T00:27:28;97080.06;;;28.30;38.05
65227;BME280;51805;49.012;12.104;2022-08-19T00:29:53;97117.75;;;28.57;37.92
65227;BME280;51805;49.012;12.104;2022-08-19T00:32:19;97099.34;;;28.46;37.91
65227;BME280;51805;49.012;12.104;2022-08-19T00:34:44;97082.59;;;28.35;37.83
65227;BME280;51805;49.012;12.104;2022-08-19T00:37:10;97107.88;;;28.44;37.89
65227;BME280;51805;49.012;12.104;2022-08-19T00:39:35;97100.72;;;28.40;37.76
65227;BME280;51805;49.012;12.104;2022-08-19T00:42:01;97103.78;;;28.38;37.92
65227;BME280;51805;49.012;12.104;2022-08-19T00:44:28;97131.75;;;28.56;37.84
65227;BME280;51805;49.012;12.104;2022-08-19T00:46:56;97086.22;;;28.27;37.92
65227;BME280;51805;49.012;12.104;2022-08-19T00:52:02;97126.16;;;28.52;37.92
65227;BME280;51805;49.012;12.104;2022-08-19T00:54:30;97093.53;;;28.35;37.89
65227;BME280;51805;49.012;12.104;2022-08-19T00:56:56;97138.03;;;28.56;38.00
65227;BME280;51805;49.012;12.104;2022-08-19T00:59:21;97135.75;;;28.58;37.80
65227;BME280;51805;49.012;12.104;2022-08-19T01:01:46;97123.22;;;28.57;38.03
65227;BME280;51805;49.012;12.104;2022-08-19T01:04:12;97104.47;;;28.35;38.33
65227;BME280;51805;49.012;12.104;2022-08-19T01:06:39;97115.38;;;28.35;38.06
65227;BME280;51805;49.012;12.104;2022-08-19T01:09:04;97122.78;;;28.35;37.99
65227;BME280;51805;49.012;12.104;2022-08-19T01:11:33;97159.56;;;28.58;38.00
65227;BME280;51805;49.012;12.104;2022-08-19T01:13:59;97160.56;;;28.53;37.86
65227;BME280;51805;49.012;12.104;2022-08-19T01:16:26;97174.38;;;28.57;37.86
65227;BME280;51805;49.012;12.104;2022-08-19T01:18:53;97162.84;;;28.51;38.04
65227;BME280;51805;49.012;12.104;2022-08-19T01:21:24;97175.16;;;28.57;37.98
65227;BME280;51805;49.012;12.104;2022-08-19T01:23:51;97167.66;;;28.54;38.06
65227;BME280;51805;49.012;12.104;2022-08-19T01:26:20;97166.16;;;28.57;37.98
65227;BME280;51805;49.012;12.104;2022-08-19T01:28:48;97153.63;;;28.56;38.33
65227;BME280;51805;49.012;12.104;2022-08-19T01:31:18;97157.97;;;28.57;38.01
65227;BME280;51805;49.012;12.104;2022-08-19T01:33:44;97158.28;;;28.55;37.82
65227;BME280;51805;49.012;12.104;2022-08-19T01:36:13;97152.69;;;28.52;37.92
65227;BME280;51805;49.012;12.104;2022-08-19T01:38:41;97160.91;;;28.52;37.79
65227;BME280;51805;49.012;12.104;2022-08-19T01:41:07;97167.31;;;28.56;37.94
65227;BME280;51805;49.012;12.104;2022-08-19T01:43:33;97151.63;;;28.44;37.88
65227;BME280;51805;49.012;12.104;2022-08-19T01:45:59;97166.50;;;28.55;38.21
65227;BME280;51805;49.012;12.104;2022-08-19T01:48:24;97166.50;;;28.55;38.11
65227;BME280;51805;49.012;12.104;2022-08-19T01:50:49;97159.91;;;28.56;38.13
65227;BME280;51805;49.012;12.104;2022-08-19T01:53:15;97148.72;;;28.49;38.03
65227;BME280;51805;49.012;12.104;2022-08-19T01:55:42;97141.09;;;28.55;38.01
65227;BME280;51805;49.012;12.104;2022-08-19T01:58:18;97121.38;;;28.49;38.14
65227;BME280;51805;49.012;12.104;2022-08-19T02:00:48;97128.22;;;28.55;38.18
65227;BME280;51805;49.012;12.104;2022-08-19T02:03:13;97125.34;;;28.52;37.83
65227;BME280;51805;49.012;12.104;2022-08-19T02:05:42;97142.69;;;28.56;38.08
65227;BME280;51805;49.012;12.104;2022-08-19T02:08:08;97140.25;;;28.42;38.17
65227;BME280;51805;49.012;12.104;2022-08-19T02:10:38;97166.59;;;28.47;38.03
65227;BME280;51805;49.012;12.104;2022-08-19T02:13:04;97167.38;;;28.47;38.02
65227;BME280;51805;49.012;12.104;2022-08-19T02:15:29;97169.09;;;28.52;38.10
65227;BME280;51805;49.012;12.104;2022-08-19T02:17:55;97154.53;;;28.48;37.80
65227;BME280;51805;49.012;12.104;2022-08-19T02:20:20;97157.25;;;28.48;38.00
65227;BME280;51805;49.012;12.104;2022-08-19T02:22:45;97167.50;;;28.51;38.28
65227;BME280;51805;49.012;12.104;2022-08-19T02:25:12;97169.00;;;28.48;38.06
65227;BME280;51805;49.012;12.104;2022-08-19T02:27:39;97172.16;;;28.50;38.06
65227;BME280;51805;49.012;12.104;2022-08-19T02:30:06;97162.72;;;28.48;38.16
65227;BME280;51805;49.012;12.104;2022-08-19T02:32:32;97158.84;;;28.49;38.09
65227;BME280;51805;49.012;12.104;2022-08-19T02:34:58;97150.97;;;28.47;38.17
65227;BME280;51805;49.012;12.104;2022-08-19T02:37:23;97160.13;;;28.51;38.18
65227;BME280;51805;49.012;12.104;2022-08-19T02:39:48;97151.28;;;28.46;38.24
65227;BME280;51805;49.012;12.104;2022-08-19T02:42:13;97141.50;;;28.45;37.98
65227;BME280;51805;49.012;12.104;2022-08-19T02:44:39;97158.16;;;28.52;38.35
65227;BME280;51805;49.012;12.104;2022-08-19T02:47:04;97151.28;;;28.46;38.16
65227;BME280;51805;49.012;12.104;2022-08-19T02:49:31;97154.53;;;28.48;38.29
65227;BME280;51805;49.012;12.104;2022-08-19T02:51:56;97122.69;;;28.31;38.14
65227;BME280;51805;49.012;12.104;2022-08-19T02:54:21;97139.91;;;28.44;38.13
65227;BME280;51805;49.012;12.104;2022-08-19T02:56:47;97117.00;;;28.36;38.30
65227;BME280;51805;49.012;12.104;2022-08-19T02:59:12;97122.69;;;28.43;38.09
65227;BME280;51805;49.012;12.104;2022-08-19T03:01:39;97102.59;;;28.27;38.04
65227;BME280;51805;49.012;12.104;2022-08-19T03:04:06;97127.50;;;28.46;38.07
65227;BME280;51805;49.012;12.104;2022-08-19T03:06:36;97133.91;;;28.50;38.23
65227;BME280;51805;49.012;12.104;2022-08-19T03:09:01;97109.44;;;28.33;37.99
65227;BME280;51805;49.012;12.104;2022-08-19T03:11:29;97134.09;;;28.45;38.08
65227;BME280;51805;49.012;12.104;2022-08-19T03:13:55;97132.72;;;28.39;37.97
65227;BME280;51805;49.012;12.104;2022-08-19T03:16:23;97154.19;;;28.49;38.12
65227;BME280;51805;49.012;12.104;2022-08-19T03:18:49;97140.25;;;28.42;38.01
65227;BME280;51805;49.012;12.104;2022-08-19T03:21:17;97142.44;;;28.49;38.35
65227;BME280;51805;49.012;12.104;2022-08-19T03:23:42;97136.38;;;28.43;38.06
65227;BME280;51805;49.012;12.104;2022-08-19T03:26:08;97137.50;;;28.42;38.30
65227;BME280;51805;49.012;12.104;2022-08-19T03:28:33;97169.78;;;28.49;38.10
65227;BME280;51805;49.012;12.104;2022-08-19T03:31:05;97167.38;;;28.47;38.16
65227;BME280;51805;49.012;12.104;2022-08-19T03:33:31;97146.28;;;28.15;38.15
65227;BME280;51805;49.012;12.104;2022-08-19T03:36:14;97194.72;;;28.47;38.16
65227;BME280;51805;49.012;12.104;2022-08-19T03:38:43;97207.25;;;28.48;38.31
65227;BME280;51805;49.012;12.104;2022-08-19T03:41:11;97174.25;;;28.33;38.17
65227;BME280;51805;49.012;12.104;2022-08-19T03:43:38;97165.25;;;28.32;38.29
65227;BME280;51805;49.012;12.104;2022-08-19T03:46:09;97178.31;;;28.47;38.18
65227;BME280;51805;49.012;12.104;2022-08-19T03:48:35;97146.59;;;28.34;38.46
65227;BME280;51805;49.012;12.104;2022-08-19T03:51:01;97152.72;;;28.31;38.25
65227;BME280;51805;49.012;12.104;2022-08-19T03:53:28;97155.34;;;28.28;38.25
65227;BME280;51805;49.012;12.104;2022-08-19T03:55:54;97170.31;;;28.42;38.15
65227;BME280;51805;49.012;12.104;2022-08-19T03:58:21;97161.66;;;28.40;38.25
65227;BME280;51805;49.012;12.104;2022-08-19T04:00:46;97109.72;;;28.08;38.30
65227;BME280;51805;49.012;12.104;2022-08-19T04:03:11;97116.19;;;28.03;38.26
65227;BME280;51805;49.012;12.104;2022-08-19T04:05:37;97141.34;;;28.09;38.14
65227;BME280;51805;49.012;12.104;2022-08-19T04:08:02;97150.50;;;28.13;38.16
65227;BME280;51805;49.012;12.104;2022-08-19T04:10:28;97139.75;;;28.08;38.12
65227;BME280;51805;49.012;12.104;2022-08-19T04:12:55;97159.28;;;28.18;38.44
65227;BME280;51805;49.012;12.104;2022-08-19T04:15:20;97208.69;;;28.46;38.01
65227;BME280;51805;49.012;12.104;2022-08-19T04:20:14;97208.78;;;28.37;38.42
65227;BME280;51805;49.012;12.104;2022-08-19T04:22:40;97170.19;;;28.18;38.21
65227;BME280;51805;49.012;12.104;2022-08-19T04:25:05;97202.84;;;28.35;38.29
65227;BME280;51805;49.012;12.104;2022-08-19T04:27:30;97214.09;;;28.34;38.31
65227;BME280;51805;49.012;12.104;2022-08-19T04:29:56;97185.00;;;28.17;38.28
65227;BME280;51805;49.012;12.104;2022-08-19T04:32:22;97246.03;;;28.42;38.33
65227;BME280;51805;49.012;12.104;2022-08-19T04:34:47;97199.81;;;28.16;38.17
65227;BME280;51805;49.012;12.104;2022-08-19T04:37:12;97215.31;;;28.24;38.46
65227;BME280;51805;49.012;12.104;2022-08-19T04:39:38;97244.56;;;28.44;38.41
65227;BME280;51805;49.012;12.104;2022-08-19T04:42:03;97233.50;;;28.41;38.23
65227;BME280;51805;49.012;12.104;2022-08-19T04:44:33;97197.31;;;28.23;38.24
65227;BME280;51805;49.012;12.104;2022-08-19T04:46:59;97210.16;;;28.43;38.27
65227;BME280;51805;49.012;12.104;2022-08-19T04:49:25;97223.50;;;28.45;38.31
65227;BME280;51805;49.012;12.104;2022-08-19T04:51:52;97232.84;;;28.44;38.32
65227;BME280;51805;49.012;12.104;2022-08-19T04:54:18;97237.69;;;28.38;38.32
65227;BME280;51805;49.012;12.104;2022-08-19T04:56:43;97255.50;;;28.44;38.38
65227;BME280;51805;49.012;12.104;2022-08-19T04:59:09;97212.31;;;28.17;38.45
65227;BME280;51805;49.012;12.104;2022-08-19T05:01:34;97252.16;;;28.39;38.23
65227;BME280;51805;49.012;12.104;2022-08-19T05:04:00;97242.97;;;28.43;38.31
65227;BME280;51805;49.012;12.104;2022-08-19T05:06:26;97215.31;;;28.24;38.37
65227;BME280;51805;49.012;12.104;2022-08-19T05:08:52;97250.03;;;28.44;38.34
65227;BME280;51805;49.012;12.104;2022-08-19T05:11:24;97219.19;;;28.23;38.42
65227;BME280;51805;49.012;12.104;2022-08-19T05:13:50;97252.31;;;28.42;38.46
65227;BME280;51805;49.012;12.104;2022-08-19T05:16:18;97260.97;;;28.44;38.38
65227;BME280;51805;49.012;12.104;2022-08-19T05:18:44;97252.97;;;28.39;38.43
65227;BME280;51805;49.012;12.104;2022-08-19T05:21:12;97252.03;;;28.35;38.30
65227;BME280;51805;49.012;12.104;2022-08-19T05:23:38;97257.50;;;28.35;38.40
65227;BME280;51805;49.012;12.104;2022-08-19T05:26:04;97267.56;;;28.43;38.49
65227;BME280;51805;49.012;12.104;2022-08-19T05:28:30;97262.63;;;28.37;38.56
65227;BME280;51805;49.012;12.104;2022-08-19T05:30:55;97257.25;;;28.28;38.57
65227;BME280;51805;49.012;12.104;2022-08-19T05:33:21;97288.19;;;28.41;38.54
65227;BME280;51805;49.012;12.104;2022-08-19T05:35:47;97283.97;;;28.43;38.49
65227;BME280;51805;49.012;12.104;2022-08-19T05:38:13;97268.09;;;28.37;38.28
65227;BME280;51805;49.012;12.104;2022-08-19T05:40:39;97281.56;;;28.42;38.34
65227;BME280;51805;49.012;12.104;2022-08-19T05:43:06;97274.19;;;28.42;38.38
65227;BME280;51805;49.012;12.104;2022-08-19T05:45:32;97277.25;;;28.41;38.38
65227;BME280;51805;49.012;12.104;2022-08-19T05:47:58;97283.97;;;28.43;38.49
65227;BME280;51805;49.012;12.104;2022-08-19T05:50:24;97280.09;;;28.44;38.26
65227;BME280;51805;49.012;12.104;2022-08-19T05:52:49;97280.31;;;28.39;38.33
65227;BME280;51805;49.012;12.104;2022-08-19T05:55:14;97267.31;;;28.36;38.53
65227;BME280;51805;49.012;12.104;2022-08-19T05:57:40;97254.50;;;28.28;38.49
65227;BME280;51805;49.012;12.104;2022-08-19T06:00:06;97277.34;;;28.44;38.28
65227;BME280;51805;49.012;12.104;2022-08-19T06:02:31;97247.00;;;28.25;38.25
65227;BME280;51805;49.012;12.104;2022-08-19T06:04:56;97245.50;;;28.28;38.46
65227;BME280;51805;49.012;12.104;2022-08-19T06:07:22;97268.03;;;28.45;38.45
65227;BME280;51805;49.012;12.104;2022-08-19T06:09:48;97254.56;;;28.40;38.41
65227;BME280;51805;49.012;12.104;2022-08-19T06:12:13;97249.59;;;28.42;38.36
65227;BME280;51805;49.012;12.104;2022-08-19T06:14:38;97233.09;;;28.30;38.35
65227;BME280;51805;49.012;12.104;2022-08-19T06:17:03;97258.22;;;28.44;38.34
65227;BME280;51805;49.012;12.104;2022-08-19T06:19:30;97227.97;;;28.29;38.74
65227;BME280;51805;49.012;12.104;2022-08-19T06:21:56;97237.25;;;28.36;38.52
65227;BME280;51805;49.012;12.104;2022-08-19T06:24:24;97245.91;;;28.38;38.39
65227;BME280;51805;49.012;12.104;2022-08-19T06:26:51;97245.91;;;28.38;38.33
65227;BME280;51805;49.012;12.104;2022-08-19T06:29:19;97242.81;;;28.40;38.46
65227;BME280;51805;49.012;12.104;2022-08-19T06:31:47;97250.84;;;28.45;38.47
65227;BME280;51805;49.012;12.104;2022-08-19T06:34:13;97248.63;;;28.38;38.32
65227;BME280;51805;49.012;12.104;2022-08-19T06:36:42;97271.88;;;28.44;38.40
65227;BME280;51805;49.012;12.104;2022-08-19T06:39:14;97261.19;;;28.39;38.56
65227;BME280;51805;49.012;12.104;2022-08-19T06:41:42;97273.84;;;28.44;38.37
65227;BME280;51805;49.012;12.104;2022-08-19T06:44:10;97283.63;;;28.45;38.51
65227;BME280;51805;49.012;12.104;2022-08-19T06:46:37;97274.38;;;28.37;38.36
65227;BME280;51805;49.012;12.104;2022-08-19T06:49:02;97276.91;;;28.42;38.50
65227;BME280;51805;49.012;12.104;2022-08-19T06:51:28;97288.28;;;28.44;38.56
65227;BME280;51805;49.012;12.104;2022-08-19T06:53:55;97293.66;;;28.41;38.41
65227;BME280;51805;49.012;12.104;2022-08-19T06:56:26;97298.44;;;28.44;38.54
65227;BME280;51805;49.012;12.104;2022-08-19T06:58:51;97298.44;;;28.44;38.47
65227;BME280;51805;49.012;12.104;2022-08-19T07:01:16;97286.13;;;28.38;38.66
65227;BME280;51805;49.012;12.104;2022-08-19T07:03:42;97262.91;;;28.23;38.49
65227;BME280;51805;49.012;12.104;2022-08-19T07:06:11;97289.44;;;28.43;38.52
65227;BME280;51805;49.012;12.104;2022-08-19T07:08:37;97283.81;;;28.40;38.49
65227;BME280;51805;49.012;12.104;2022-08-19T07:11:11;97275.78;;;28.43;38.51
65227;BME280;51805;49.012;12.104;2022-08-19T07:13:37;97276.59;;;28.44;38.48
65227;BME280;51805;49.012;12.104;2022-08-19T07:16:05;97267.56;;;28.43;38.63
65227;BME280;51805;49.012;12.104;2022-08-19T07:18:30;97245.97;;;28.30;38.44
65227;BME280;51805;49.012;12.104;2022-08-19T07:21:04;97263.69;;;28.44;38.60
65227;BME280;51805;49.012;12.104;2022-08-19T07:23:30;97253.03;;;28.31;38.54
65227;BME280;51805;49.012;12.104;2022-08-19T07:25:55;97255.97;;;28.26;38.71
65227;BME280;51805;49.012;12.104;2022-08-19T07:28:20;97276.78;;;28.39;38.46
65227;BME280;51805;49.012;12.104;2022-08-19T07:30:46;97275.19;;;28.38;38.42
65227;BME280;51805;49.012;12.104;2022-08-19T07:33:11;97275.63;;;28.40;38.36
65227;BME280;51805;49.012;12.104;2022-08-19T07:35:36;97280.31;;;28.39;38.65
65227;BME280;51805;49.012;12.104;2022-08-19T07:38:02;97278.03;;;28.41;38.67
65227;BME280;51805;49.012;12.104;2022-08-19T07:40:27;97278.69;;;28.38;38.73
65227;BME280;51805;49.012;12.104;2022-08-19T07:42:52;97269.25;;;28.36;38.60
65227;BME280;51805;49.012;12.104;2022-08-19T07:45:18;97276.63;;;28.35;38.47
65227;BME280;51805;49.012;12.104;2022-08-19T07:47:43;97286.22;;;28.41;38.35
65227;BME280;51805;49.012;12.104;2022-08-19T07:50:10;97291.84;;;28.45;38.85
65227;BME280;51805;49.012;12.104;2022-08-19T07:52:36;97283.81;;;28.40;38.89
65227;BME280;51805;49.012;12.104;2022-08-19T07:55:03;97286.03;;;28.46;38.42
65227;BME280;51805;49.012;12.104;2022-08-19T07:57:28;97273.75;;;28.32;38.61
65227;BME280;51805;49.012;12.104;2022-08-19T07:59:54;97210.25;;;27.94;38.50
65227;BME280;51805;49.012;12.104;2022-08-19T08:02:19;97288.19;;;28.41;38.57
65227;BME280;51805;49.012;12.104;2022-08-19T08:04:44;97276.63;;;28.35;38.76
65227;BME280;51805;49.012;12.104;2022-08-19T08:07:10;97272.31;;;28.34;38.52
65227;BME280;51805;49.012;12.104;2022-08-19T08:09:38;97288.47;;;28.48;38.72
65227;BME280;51805;49.012;12.104;2022-08-19T08:12:11;97280.09;;;28.44;38.69
65227;BME280;51805;49.012;12.104;2022-08-19T08:14:41;97279.59;;;28.51;38.66
65227;BME280;51805;49.012;12.104;2022-08-19T08:17:08;97249.63;;;28.34;38.42
65227;BME280;51805;49.012;12.104;2022-08-19T08:19:34;97272.19;;;28.51;38.60
65227;BME280;51805;49.012;12.104;2022-08-19T08:22:00;97267.41;;;28.48;38.44
65227;BME280;51805;49.012;12.104;2022-08-19T08:24:30;97268.00;;;28.54;38.42
65227;BME280;51805;49.012;12.104;2022-08-19T08:26:56;97275.03;;;28.55;38.30
65227;BME280;51805;49.012;12.104;2022-08-19T08:29:22;97259.53;;;28.47;38.32
65227;BME280;51805;49.012;12.104;2022-08-19T08:31:47;97264.91;;;28.55;38.44
65227;BME280;51805;49.012;12.104;2022-08-19T08:34:14;97233.84;;;28.39;38.19
65227;BME280;51805;49.012;12.104;2022-08-19T08:36:42;97261.97;;;28.60;38.14
65227;BME280;51805;49.012;12.104;2022-08-19T08:39:09;97250.03;;;28.65;37.98
65227;BME280;51805;49.012;12.104;2022-08-19T08:42:04;97243.91;;;28.68;37.97
65227;BME280;51805;49.012;12.104;2022-08-19T08:44:43;97244.22;;;28.66;37.91
65227;BME280;51805;49.012;12.104;2022-08-19T08:47:17;97254.97;;;28.71;37.90
65227;BME280;51805;49.012;12.104;2022-08-19T08:49:51;97229.66;;;28.62;37.87
65227;BME280;51805;49.012;12.104;2022-08-19T08:52:26;97228.25;;;28.56;37.94
65227;BME280;51805;49.012;12.104;2022-08-19T08:54:57;97228.28;;;28.68;37.84
65227;BME280;51805;49.012;12.104;2022-08-19T08:57:36;97213.47;;;28.69;37.79
65227;BME280;51805;49.012;12.104;2022-08-19T09:00:07;97192.25;;;28.54;37.99
65227;BME280;51805;49.012;12.104;2022-08-19T09:02:32;97199.22;;;28.64;37.75
65227;BME280;51805;49.012;12.104;2022-08-19T09:04:58;97221.34;;;28.71;37.61
65227;BME280;51805;49.012;12.104;2022-08-19T09:08:00;97222.16;;;28.71;37.77
65227;BME280;51805;49.012;12.104;2022-08-19T09:15:36;97252.03;;;28.76;37.92
65227;BME280;51805;49.012;12.104;2022-08-19T09:18:04;97252.81;;;28.77;37.77
65227;BME280;51805;49.012;12.104;2022-08-19T09:20:30;97254.78;;;28.76;37.88
65227;BME280;51805;49.012;12.104;2022-08-19T09:22:55;97253.81;;;28.72;37.87
65227;BME280;51805;49.012;12.104;2022-08-19T09:25:22;97253.25;;;28.67;37.86
65227;BME280;51805;49.012;12.104;2022-08-19T09:27:49;97239.19;;;28.56;37.96
65227;BME280;51805;49.012;12.104;2022-08-19T09:30:22;97256.31;;;28.65;37.99
65227;BME280;51805;49.012;12.104;2022-08-19T09:32:48;97269.41;;;28.72;38.11
65227;BME280;51805;49.012;12.104;2022-08-19T09:35:14;97267.03;;;28.70;37.99
65227;BME280;51805;49.012;12.104;2022-08-19T09:37:40;97274.44;;;28.70;37.91
65227;BME280;51805;49.012;12.104;2022-08-19T09:40:06;97246.25;;;28.57;38.10
65227;BME280;51805;49.012;12.104;2022-08-19T09:42:32;97255.31;;;28.49;38.16
65227;BME280;51805;49.012;12.104;2022-08-19T09:44:58;97234.97;;;28.38;38.14
65227;BME280;51805;49.012;12.104;2022-08-19T09:47:23;97241.38;;;28.42;38.19
65227;BME280;51805;49.012;12.104;2022-08-19T09:49:48;97259.97;;;28.49;38.28
65227;BME280;51805;49.012;12.104;2022-08-19T09:52:13;97266.19;;;28.58;38.06
65227;BME280;51805;49.012;12.104;2022-08-19T09:54:39;97258.88;;;28.50;38.01
65227;BME280;51805;49.012;12.104;2022-08-19T09:57:04;97292.31;;;28.67;38.02
65227;BME280;51805;49.012;12.104;2022-08-19T09:59:30;97291.38;;;28.63;38.21
65227;BME280;51805;49.012;12.104;2022-08-19T10:01:55;97292.97;;;28.64;38.05
65227;BME280;51805;49.012;12.104;2022-08-19T10:04:21;97294.59;;;28.65;38.11
65227;BME280;51805;49.012;12.104;2022-08-19T10:06:48;97272.31;;;28.55;38.08
65227;BME280;51805;49.012;12.104;2022-08-19T10:09:15;97265.78;;;28.47;38.01
65227;BME280;51805;49.012;12.104;2022-08-19T10:11:43;97295.28;;;28.62;38.20
65227;BME280;51805;49.012;12.104;2022-08-19T10:14:09;97304.72;;;28.65;38.29
65227;BME280;51805;49.012;12.104;2022-08-19T10:16:36;97269.00;;;28.49;38.45
65227;BME280;51805;49.012;12.104;2022-08-19T10:19:02;97285.34;;;28.58;38.17
65227;BME280;51805;49.012;12.104;2022-08-19T10:21:32;97280.84;;;28.53;38.34
65227;BME280;51805;49.012;12.104;2022-08-19T10:24:01;97286.59;;;28.60;38.00
65227;BME280;51805;49.012;12.104;2022-08-19T10:26:35;97248.28;;;28.40;38.14
65227;BME280;51805;49.012;12.104;2022-08-19T10:29:02;97237.91;;;28.33;38.03
65227;BME280;51805;49.012;12.104;2022-08-19T10:31:30;97279.78;;;28.66;38.13
65227;BME280;51805;49.012;12.104;2022-08-19T10:33:56;97277.97;;;28.70;38.08
65227;BME280;51805;49.012;12.104;2022-08-19T10:36:23;97263.38;;;28.66;38.06
65227;BME280;51805;49.012;12.104;2022-08-19T10:38:51;97269.66;;;28.67;38.03
65227;BME280;51805;49.012;12.104;2022-08-19T10:41:25;97273.50;;;28.66;37.96
65227;BME280;51805;49.012;12.104;2022-08-19T10:43:52;97253.31;;;28.58;37.97
65227;BME280;51805;49.012;12.104;2022-08-19T10:46:18;97279.59;;;28.71;38.12
65227;BME280;51805;49.012;12.104;2022-08-19T10:48:44;97267.25;;;28.65;37.95
65227;BME280;51805;49.012;12.104;2022-08-19T10:51:10;97267.50;;;28.72;38.06
65227;BME280;51805;49.012;12.104;2022-08-19T10:53:35;97269.31;;;28.68;37.99
65227;BME280;51805;49.012;12.104;2022-08-19T10:56:01;97268.75;;;28.75;38.05
65227;BME280;51805;49.012;12.104;2022-08-19T10:58:26;97268.97;;;28.70;37.91
65227;BME280;51805;49.012;12.104;2022-08-19T11:00:57;97259.16;;;28.69;37.96
65227;BME280;51805;49.012;12.104;2022-08-19T11:03:23;97272.28;;;28.75;38.20
65227;BME280;51805;49.012;12.104;2022-08-19T11:06:05;97254.97;;;28.71;37.99
65227;BME280;51805;49.012;12.104;2022-08-19T11:08:32;97254.16;;;28.71;37.95
65227;BME280;51805;49.012;12.104;2022-08-19T11:11:00;97244.03;;;28.71;38.03
65227;BME280;51805;49.012;12.104;2022-08-19T11:13:30;97249.84;;;28.70;37.83
65227;BME280;51805;49.012;12.104;2022-08-19T11:16:00;97247.78;;;28.67;37.88
65227;BME280;51805;49.012;12.104;2022-08-19T11:18:26;97249.50;;;28.71;37.88
65227;BME280;51805;49.012;12.104;2022-08-19T11:20:55;97251.09;;;28.72;37.92
65227;BME280;51805;49.012;12.104;2022-08-19T11:23:29;97261.22;;;28.72;38.04
65227;BME280;51805;49.012;12.104;2022-08-19T11:25:54;97262.97;;;28.76;37.91
65227;BME280;51805;49.012;12.104;2022-08-19T11:28:20;97248.69;;;28.71;38.07
65227;BME280;51805;49.012;12.104;2022-08-19T11:30:45;97263.19;;;28.71;37.87
65227;BME280;51805;49.012;12.104;2022-08-19T11:33:10;97256.56;;;28.72;38.05
65227;BME280;51805;49.012;12.104;2022-08-19T11:35:39;97265.44;;;28.69;38.05
65227;BME280;51805;49.012;12.104;2022-08-19T11:38:04;97268.97;;;28.70;38.08
65227;BME280;51805;49.012;12.104;2022-08-19T11:40:30;97265.63;;;28.64;38.30
65227;BME280;51805;49.012;12.104;2022-08-19T11:42:55;97266.31;;;28.61;38.33
65227;BME280;51805;49.012;12.104;2022-08-19T11:45:21;97272.38;;;28.67;38.19
65227;BME280;51805;49.012;12.104;2022-08-19T11:47:46;97277.03;;;28.66;38.30
65227;BME280;51805;49.012;12.104;2022-08-19T11:50:11;97243.44;;;28.45;38.24
65227;BME280;51805;49.012;12.104;2022-08-19T11:52:37;97208.50;;;28.30;38.35
65227;BME280;51805;49.012;12.104;2022-08-19T11:55:02;97208.16;;;28.32;38.31
65227;BME280;51805;49.012;12.104;2022-08-19T11:57:28;97208.50;;;28.30;38.31
65227;BME280;51805;49.012;12.104;2022-08-19T11:59:53;97221.78;;;28.40;38.15
65227;BME280;51805;49.012;12.104;2022-08-19T12:02:18;97196.66;;;28.26;38.30
65227;BME280;51805;49.012;12.104;2022-08-19T12:04:44;97195.06;;;28.25;38.29
65227;BME280;51805;49.012;12.104;2022-08-19T12:07:09;97192.66;;;28.24;38.30
65227;BME280;51805;49.012;12.104;2022-08-19T12:09:34;97193.00;;;28.22;38.66
65227;BME280;51805;49.012;12.104;2022-08-19T12:12:00;97219.25;;;28.35;38.63
65227;BME280;51805;49.012;12.104;2022-08-19T12:14:25;97220.19;;;28.39;38.77
65227;BME280;51805;49.012;12.104;2022-08-19T12:16:51;97216.97;;;28.37;38.59
65227;BME280;51805;49.012;12.104;2022-08-19T12:19:16;97218.13;;;28.36;38.80
65227;BME280;51805;49.012;12.104;2022-08-19T12:21:41;97204.38;;;28.24;38.60
65227;BME280;51805;49.012;12.104;2022-08-19T12:24:06;97196.84;;;28.21;38.61
65227;BME280;51805;49.012;12.104;2022-08-19T12:26:32;97259.91;;;28.57;38.72
65227;BME280;51805;49.012;12.104;2022-08-19T12:28:58;97227.25;;;28.40;38.84
65227;BME280;51805;49.012;12.104;2022-08-19T12:31:23;97247.41;;;28.56;38.84
65227;BME280;51805;49.012;12.104;2022-08-19T12:33:49;97222.91;;;28.39;38.69
65227;BME280;51805;49.012;12.104;2022-08-19T12:36:15;97249.31;;;28.56;38.68
65227;BME280;51805;49.012;12.104;2022-08-19T12:38:42;97253.31;;;28.58;38.38
65227;BME280;51805;49.012;12.104;2022-08-19T12:41:11;97251.84;;;28.61;38.53
65227;BME280;51805;49.012;12.104;2022-08-19T12:43:36;97224.31;;;28.45;38.43
65227;BME280;51805;49.012;12.104;2022-08-19T12:46:05;97215.16;;;28.41;38.17
65227;BME280;51805;49.012;12.104;2022-08-19T12:48:34;97243.66;;;28.61;38.33
65227;BME280;51805;49.012;12.104;2022-08-19T12:51:00;97242.31;;;28.67;38.35
65227;BME280;51805;49.012;12.104;2022-08-19T12:53:25;97207.78;;;28.42;38.48
65227;BME280;51805;49.012;12.104;2022-08-19T12:55:58;97240.59;;;28.62;38.38
65227;BME280;51805;49.012;12.104;2022-08-19T12:58:23;97235.91;;;28.63;38.28